Relevés horaires Bierset (Belgique)


Relevés horaires à Bierset - Vendredi 07 Août 2026
Heure UTC1 Température [°C] Vent [km/h] Hum. [%] Pres.4 [hPa] Visi. [Km] Nébu. [octa] Préc.5 [mm] Cond.
2m. Res. Ros. Dir.2 Vit. Moy. Raf.3
23:00 16.9 16.9 9.9 ENE 7.4 -- -- 63 1023.7(0.4/3h) 30 1/8 -- --
22:00 15.6 15.6 9.4 NNE 5.6 -- -- 67 1023.8(0.9/3h) 30 1/8 -- --
21:00 16.0 16.0 8.9 NNE 5.6 -- -- 63 1023.8(0.9/3h) 30 1/8 -- --
20:00 17.8 17.8 9.0 NNE 5.6 -- -- 56 1023.2(0.4/3h) 30 1/8 -- --
19:00 19.4 19.4 8.5 NNE 7.4 -- -- 49 1022.6(-0.5/3h) 30 1/8 -- --
18:00 21.2 21.2 7.5 N 7.4 -- -- 41 1022.5(-0.6/3h) 30 1/8 0/12h
--
17:00 22.0 22.0 7.2 NE 7.4 -- -- 38 1022.6(-0.7/3h) 30 3/8 -- --
16:00 22.3 22.3 6.6 NNO 5.6 -- -- 36 1022.9(-0.7/3h) 30 4/8 -- --
15:00 22.9 22.9 7.1 NNO 5.6 -- -- 36 1022.9(-0.7/3h) 30 6/8 -- --
14:00 23.4 23.4 8.5 NO 1.9 -- -- 39 1023.2(-0.9/3h) 30 6/8 -- --
13:00 20.6 20.6 6.9 NE 3.7 -- -- 41 1023.7(-0.8/3h) 30 6/8 -- --
12:00 20.1 20.1 6.7 N 7.4 -- -- 42 1023.8(-1.0/3h) 30 6/8 0/6h
--
11:00 20.6 20.6 7.9 NNO 3.7 -- -- 44 1024.3(-0.6/3h) 30 6/8 -- --
10:00 19.6 19.6 7.7 NNO 1.9 -- -- 46 1024.6(0.1/3h) 30 5/8 -- --
09:00 19.5 19.5 8.3 ONO 1.9 -- -- 48 1024.8(0.1/3h) 30 4/8 -- --
08:00 18.2 18.2 7.7 NNO 0.0 -- -- 50 1025.1(0.6/3h) 30 1/8 -- --
07:00 16.8 16.8 8.7 S 1.9 -- -- 59 1025(0.3/3h) 30 1/8 -- --
06:00 13.1 13.1 8.7 SE 5.6 -- -- 75 1025.2(0.6/3h) 30 1/8 0/12h
--
05:00 11.9 11.9 8.1 SSE 3.7 -- -- 78 1024.9(-0.2/3h) 30 1/8 -- --
04:00 12.5 12.5 8.0 SE 1.9 -- -- 74 1024.9(-0.1/3h) 30 1/8 -- --
03:00 14.2 14.2 7.2 E 1.9 -- -- 63 1024.5(-0.5/3h) 30 1/8 -- --
02:00 14.4 14.4 7.1 E 1.9 -- -- 61 1025(0.0/3h) 30 1/8 -- --
01:00 13.5 13.5 6.9 NNO 0.0 -- -- 64 1025(0.3/3h) 30 1/8 -- --
00:00 15.7 15.7 7.0 NO 1.9 -- -- 56 1024.9(0.5/3h) 30 1/8 0/6h
0/24h
--

1 Coordinated Universal Time. Actuellement il est 01:00 locale et 23:00 UTC.

2 Le vent souffle depuis la direction indiquée vers la direction oposée.

3 Les rafales max. sont disponible 40 min après l'heure du relevé.

4 Pour les stations d'altitude (plus de 600m) le géopotentiel du niveau le plus proche de la pression obligatoire est indiqué.

5 Les stations disposant d'un diffuseur peuvent indiquer "trace". Cela signifie que des précipitations ont touchés le sol mais que la quantité est inférieure à 0.1 mm.

Récapitulatif de la journée
Température [°C] Vent [km/h] Ensoleillement4 [h] Precipitations totale5 [mm] Pression [Hpa]
Min1 Max.2 Moy.3 Max. Min Max.
-- -- 0 -- 0 h 0 min 0 1022.5 1025.2

1 Température minimale relevée entre 18:00 UTC la veille et 18:00 UTC le jour donné.

2 Température maximale relevée entre 06:00 UTC le jour donné et 06:00 UTC le lendemain.

3 Vent moyen de la journée basé sur les relevés horaires.

4 Ensoleillement en heures relevé entre 06:00 UTC la veille et 06:00 UTC le jour donné.

5 Précipitations totales tombées entre 06:00 UTC la jour donné et 06:00 UTC le lendemain.

Graphiques horaires